createdAt,value
2022-09-25T00:01:30.709Z,9.74
2022-09-25T00:03:58.955Z,9.73
2022-09-25T00:06:29.068Z,9.74
2022-09-25T00:08:59.259Z,9.75
2022-09-25T00:11:32.869Z,9.77
2022-09-25T00:14:02.974Z,9.77
2022-09-25T00:16:33.069Z,9.75
2022-09-25T00:19:19.570Z,9.75
2022-09-25T00:21:52.918Z,9.74
2022-09-25T00:24:22.237Z,9.74
2022-09-25T00:26:51.715Z,9.75
2022-09-25T00:29:21.602Z,9.74
2022-09-25T00:31:49.956Z,9.76
2022-09-25T00:34:18.130Z,9.75
2022-09-25T00:36:46.250Z,9.75
2022-09-25T00:39:14.466Z,9.70
2022-09-25T00:41:42.618Z,9.69
2022-09-25T00:44:57.492Z,9.69
2022-09-25T00:47:48.120Z,9.69
2022-09-25T00:50:28.406Z,9.71
2022-09-25T00:53:03.982Z,9.79
2022-09-25T00:55:34.529Z,9.86
2022-09-25T00:58:04.969Z,9.88
2022-09-25T01:00:35.611Z,9.86
2022-09-25T01:03:05.481Z,9.79
2022-09-25T01:05:38.807Z,9.73
2022-09-25T01:08:11.785Z,9.68
2022-09-25T01:10:42.013Z,9.63
2022-09-25T01:13:10.995Z,9.59
2022-09-25T01:15:49.872Z,9.55
2022-09-25T01:18:33.467Z,9.52
2022-09-25T01:21:23.172Z,9.50
2022-09-25T01:24:42.837Z,9.44
2022-09-25T01:27:32.819Z,9.38
2022-09-25T01:30:08.913Z,9.35
2022-09-25T01:32:51.604Z,9.30
2022-09-25T01:35:29.947Z,9.27
2022-09-25T01:38:04.387Z,9.25
2022-09-25T01:40:37.157Z,9.23
2022-09-25T01:43:13.821Z,9.21
2022-09-25T01:45:48.463Z,9.22
2022-09-25T01:48:20.191Z,9.20
2022-09-25T01:50:53.761Z,9.20
2022-09-25T01:53:27.722Z,9.20
2022-09-25T01:55:59.416Z,9.18
2022-09-25T01:58:34.470Z,9.19
2022-09-25T02:01:10.983Z,9.17
2022-09-25T02:03:45.679Z,9.16
2022-09-25T02:06:19.779Z,9.16
2022-09-25T02:08:52.421Z,9.14
2022-09-25T02:11:21.254Z,9.11
2022-09-25T02:13:56.601Z,9.11
2022-09-25T02:16:33.092Z,9.11
2022-09-25T02:19:33.628Z,9.09
2022-09-25T02:22:08.967Z,9.07
2022-09-25T02:24:46.132Z,9.05
2022-09-25T02:27:15.661Z,9.03
2022-09-25T02:29:43.982Z,9.02
2022-09-25T02:32:16.157Z,8.95
2022-09-25T02:34:44.652Z,8.94
2022-09-25T02:37:13.843Z,8.91
2022-09-25T02:39:44.534Z,8.92
2022-09-25T02:42:28.118Z,8.89
2022-09-25T02:45:13.199Z,8.87
2022-09-25T02:47:55.545Z,8.91
2022-09-25T02:50:28.612Z,8.90
2022-09-25T02:53:07.411Z,8.88
2022-09-25T02:55:41.962Z,8.84
2022-09-25T02:58:17.112Z,8.82
2022-09-25T03:00:49.039Z,8.79
2022-09-25T03:03:22.926Z,8.75
2022-09-25T03:05:52.819Z,8.71
2022-09-25T03:08:41.690Z,8.67
2022-09-25T03:11:12.359Z,8.63
2022-09-25T03:13:41.708Z,8.62
2022-09-25T03:16:18.747Z,8.62
2022-09-25T03:18:48.947Z,8.63
2022-09-25T03:21:17.191Z,8.63
2022-09-25T03:23:45.856Z,8.62
2022-09-25T03:26:14.040Z,8.64
2022-09-25T03:28:42.227Z,8.68
2022-09-25T03:31:12.686Z,8.69
2022-09-25T03:33:43.131Z,8.72
2022-09-25T03:36:16.364Z,8.69
2022-09-25T03:38:45.866Z,8.66
2022-09-25T03:41:20.153Z,8.62
2022-09-25T03:43:51.683Z,8.61
2022-09-25T03:46:24.992Z,8.62
2022-09-25T03:48:54.223Z,8.61
2022-09-25T03:51:24.938Z,8.58
2022-09-25T03:53:53.594Z,8.59
2022-09-25T03:56:24.868Z,8.56
2022-09-25T03:58:54.697Z,8.59
2022-09-25T04:01:24.472Z,8.66
2022-09-25T04:03:53.594Z,8.68
2022-09-25T04:06:26.554Z,8.69
2022-09-25T04:08:55.546Z,8.68
2022-09-25T04:11:25.478Z,8.67
2022-09-25T04:13:54.048Z,8.66
2022-09-25T04:16:22.585Z,8.65
2022-09-25T04:18:51.235Z,8.66
2022-09-25T04:21:19.435Z,8.67
2022-09-25T04:24:02.932Z,8.66
2022-09-25T04:26:31.557Z,8.65
2022-09-25T04:29:01.329Z,8.62
2022-09-25T04:31:29.950Z,8.64
2022-09-25T04:33:57.195Z,8.66
2022-09-25T04:36:25.354Z,8.66
2022-09-25T04:38:54.806Z,8.70
2022-09-25T04:41:22.986Z,8.77
2022-09-25T04:43:51.110Z,8.86
2022-09-25T04:46:22.470Z,8.94
2022-09-25T04:48:51.685Z,9.00
2022-09-25T04:51:20.461Z,9.01
2022-09-25T04:53:48.583Z,9.02
2022-09-25T04:56:18.070Z,8.95
2022-09-25T04:58:47.830Z,8.88
2022-09-25T05:01:19.032Z,8.81
2022-09-25T05:03:50.252Z,8.76
2022-09-25T05:06:18.569Z,8.68
2022-09-25T05:08:49.645Z,8.61
2022-09-25T05:11:19.223Z,8.54
2022-09-25T05:13:51.716Z,8.49
2022-09-25T05:16:20.131Z,8.47
2022-09-25T05:18:48.658Z,8.43
2022-09-25T05:21:17.051Z,8.43
2022-09-25T05:23:45.147Z,8.44
2022-09-25T05:26:13.974Z,8.49
2022-09-25T05:28:53.341Z,8.53
2022-09-25T05:31:21.631Z,8.50
2022-09-25T05:33:51.354Z,8.48
2022-09-25T05:36:19.656Z,8.45
2022-09-25T05:38:48.428Z,8.42
2022-09-25T05:41:16.750Z,8.40
2022-09-25T05:43:47.818Z,8.42
2022-09-25T05:46:16.766Z,8.44
2022-09-25T05:48:45.052Z,8.47
2022-09-25T05:51:13.453Z,8.49
2022-09-25T05:53:42.132Z,8.52
2022-09-25T05:56:10.339Z,8.56
2022-09-25T05:58:38.828Z,8.58
2022-09-25T06:01:08.323Z,8.61
2022-09-25T06:03:36.513Z,8.63
2022-09-25T06:06:05.218Z,8.69
2022-09-25T06:08:35.480Z,8.70
2022-09-25T06:11:04.606Z,8.76
2022-09-25T06:13:34.877Z,8.82
2022-09-25T06:16:03.967Z,8.88
2022-09-25T06:18:34.281Z,8.97
2022-09-25T06:21:05.147Z,9.06
2022-09-25T06:23:33.636Z,9.14
2022-09-25T06:26:03.260Z,9.23
2022-09-25T06:28:31.857Z,9.32
2022-09-25T06:31:02.003Z,9.39
2022-09-25T06:33:30.563Z,9.48
2022-09-25T06:36:00.597Z,9.54
2022-09-25T06:38:29.042Z,9.60
2022-09-25T06:40:59.890Z,9.66
2022-09-25T06:43:29.118Z,9.74
2022-09-25T06:46:03.217Z,9.80
2022-09-25T06:48:32.034Z,9.82
2022-09-25T06:51:02.716Z,9.88
2022-09-25T06:53:31.432Z,9.92
2022-09-25T06:56:00.809Z,9.98
2022-09-25T06:58:30.623Z,10.04
2022-09-25T07:00:59.010Z,10.11
2022-09-25T07:03:44.835Z,10.21
2022-09-25T07:06:16.608Z,10.35
2022-09-25T07:08:46.308Z,10.49
2022-09-25T07:11:16.923Z,10.71
2022-09-25T07:13:45.448Z,10.83
2022-09-25T07:16:16.010Z,10.97
2022-09-25T07:18:45.004Z,11.09
2022-09-25T07:21:17.394Z,11.23
2022-09-25T07:23:48.708Z,11.37
2022-09-25T07:26:21.792Z,11.45
2022-09-25T07:28:56.097Z,11.54
2022-09-25T07:31:27.921Z,11.62
2022-09-25T07:33:56.826Z,11.67
2022-09-25T07:36:26.403Z,11.77
2022-09-25T07:38:55.214Z,11.84
2022-09-25T07:41:23.990Z,11.91
2022-09-25T07:44:06.250Z,12.17
2022-09-25T07:46:43.175Z,12.27
2022-09-25T07:49:11.544Z,12.36
2022-09-25T07:51:43.267Z,12.47
2022-09-25T07:54:11.670Z,12.55
2022-09-25T07:56:40.230Z,12.67
2022-09-25T07:59:08.419Z,12.78
2022-09-25T08:01:42.606Z,12.89
2022-09-25T08:04:11.743Z,13.03
2022-09-25T08:06:41.225Z,13.17
2022-09-25T08:09:10.776Z,13.31
2022-09-25T08:11:39.518Z,13.44
2022-09-25T08:14:07.841Z,13.60
2022-09-25T08:16:36.048Z,13.73
2022-09-25T08:19:05.012Z,13.88
2022-09-25T08:21:33.391Z,14.02
2022-09-25T08:24:03.688Z,14.16
2022-09-25T08:26:31.879Z,14.30
2022-09-25T08:29:00.633Z,14.44
2022-09-25T08:31:29.280Z,14.57
2022-09-25T08:34:06.154Z,14.69
2022-09-25T08:36:45.745Z,14.80
2022-09-25T08:39:15.263Z,14.92
2022-09-25T08:41:49.274Z,15.07
2022-09-25T08:44:26.397Z,15.18
2022-09-25T08:47:19.773Z,15.30
2022-09-25T08:50:03.710Z,15.40
2022-09-25T08:52:33.413Z,15.50
2022-09-25T08:55:02.997Z,15.60
2022-09-25T08:57:37.337Z,15.70
2022-09-25T09:00:11.945Z,15.81
2022-09-25T09:02:43.811Z,15.89
2022-09-25T09:05:21.511Z,16.00
2022-09-25T09:07:55.660Z,16.15
2022-09-25T09:10:33.812Z,16.31
2022-09-25T09:13:08.794Z,16.37
2022-09-25T09:15:41.328Z,16.50
2022-09-25T09:18:22.539Z,16.61
2022-09-25T09:20:54.457Z,16.85
2022-09-25T09:23:24.838Z,17.11
2022-09-25T09:26:03.082Z,17.32
2022-09-25T09:29:18.911Z,17.54
2022-09-25T09:31:59.654Z,17.75
2022-09-25T09:35:07.763Z,17.75
2022-09-25T09:37:54.974Z,17.64
2022-09-25T09:40:38.028Z,17.54
2022-09-25T09:43:20.440Z,17.35
2022-09-25T09:45:56.871Z,17.15
2022-09-25T09:48:32.447Z,17.12
2022-09-25T09:51:07.091Z,17.12
2022-09-25T09:53:40.320Z,17.19
2022-09-25T09:56:15.659Z,17.28
2022-09-25T09:58:51.051Z,17.42
2022-09-25T10:01:40.284Z,17.54
2022-09-25T10:04:12.609Z,17.64
2022-09-25T10:06:46.374Z,17.67
2022-09-25T10:09:17.434Z,17.66
2022-09-25T10:11:48.340Z,17.49
2022-09-25T10:14:22.613Z,17.28
2022-09-25T10:16:53.835Z,17.09
2022-09-25T10:19:25.700Z,16.93
2022-09-25T10:21:58.239Z,16.75
2022-09-25T10:24:52.455Z,16.54
2022-09-25T10:27:29.708Z,16.50
2022-09-25T10:30:21.058Z,16.57
2022-09-25T10:32:58.956Z,16.72
2022-09-25T10:35:30.918Z,16.86
2022-09-25T10:38:02.459Z,16.94
2022-09-25T10:40:35.033Z,16.99
2022-09-25T10:43:20.369Z,16.76
2022-09-25T10:45:52.697Z,16.51
2022-09-25T10:48:49.695Z,16.43
2022-09-25T10:51:19.942Z,16.65
2022-09-25T10:53:49.375Z,16.85
2022-09-25T10:56:22.591Z,17.03
2022-09-25T10:58:56.281Z,17.19
2022-09-25T11:01:35.714Z,17.35
2022-09-25T11:04:12.949Z,17.66
2022-09-25T11:06:47.131Z,18.05
2022-09-25T11:09:17.849Z,18.43
2022-09-25T11:11:49.400Z,18.67
2022-09-25T11:14:23.447Z,18.78
2022-09-25T11:16:57.427Z,18.60
2022-09-25T11:19:31.510Z,18.27
2022-09-25T11:22:09.111Z,18.01
2022-09-25T11:24:50.731Z,17.53
2022-09-25T11:27:25.688Z,17.18
2022-09-25T11:30:04.880Z,16.99
2022-09-25T11:32:46.625Z,16.97
2022-09-25T11:35:36.809Z,16.95
2022-09-25T11:38:17.323Z,16.73
2022-09-25T11:41:12.316Z,16.65
2022-09-25T11:43:57.756Z,16.62
2022-09-25T11:46:43.007Z,16.64
2022-09-25T11:49:20.906Z,16.63
2022-09-25T11:52:33.381Z,16.66
2022-09-25T11:55:43.209Z,16.71
2022-09-25T11:58:31.949Z,16.62
2022-09-25T12:01:10.574Z,16.59
2022-09-25T12:03:59.522Z,16.55
2022-09-25T12:06:56.315Z,16.49
2022-09-25T12:09:54.064Z,16.84
2022-09-25T12:12:32.428Z,17.71
2022-09-25T12:15:15.105Z,18.72
2022-09-25T12:17:54.215Z,19.70
2022-09-25T12:20:31.956Z,20.67
2022-09-25T12:23:15.850Z,21.70
2022-09-25T12:26:12.439Z,22.78
2022-09-25T12:28:55.384Z,23.29
2022-09-25T12:31:39.480Z,23.37
2022-09-25T12:34:19.520Z,23.28
2022-09-25T12:36:54.211Z,23.10
2022-09-25T12:39:32.709Z,22.46
2022-09-25T12:42:08.911Z,20.29
2022-09-25T12:44:46.688Z,18.06
2022-09-25T12:47:23.837Z,16.84
2022-09-25T12:50:02.157Z,16.30
2022-09-25T12:52:37.715Z,16.01
2022-09-25T12:55:14.394Z,16.03
2022-09-25T12:57:48.254Z,15.89
2022-09-25T13:00:22.319Z,15.89
2022-09-25T13:02:59.432Z,15.95
2022-09-25T13:05:34.971Z,16.19
2022-09-25T13:08:11.089Z,16.52
2022-09-25T13:10:46.107Z,16.72
2022-09-25T13:13:21.371Z,16.73
2022-09-25T13:15:55.625Z,16.86
2022-09-25T13:18:26.106Z,17.06
2022-09-25T13:20:56.054Z,17.27
2022-09-25T13:23:37.605Z,18.19
2022-09-25T13:26:14.775Z,19.10
2022-09-25T13:28:52.282Z,19.29
2022-09-25T13:31:27.444Z,19.53
2022-09-25T13:34:04.394Z,20.06
2022-09-25T13:36:38.085Z,20.69
2022-09-25T13:39:36.255Z,21.70
2022-09-25T13:42:09.760Z,22.75
2022-09-25T13:44:58.057Z,23.60
2022-09-25T13:48:05.993Z,24.73
2022-09-25T13:50:44.153Z,25.64
2022-09-25T13:53:29.599Z,26.47
2022-09-25T13:56:48.307Z,27.11
2022-09-25T13:59:40.035Z,26.66
2022-09-25T14:02:43.734Z,25.39
2022-09-25T14:05:18.532Z,24.47
2022-09-25T14:07:50.822Z,24.09
2022-09-25T14:10:20.249Z,24.68
2022-09-25T14:12:50.874Z,25.17
2022-09-25T14:15:27.888Z,25.09
2022-09-25T14:17:58.641Z,26.04
2022-09-25T14:20:40.141Z,26.62
2022-09-25T14:23:15.424Z,26.57
2022-09-25T14:25:47.459Z,27.22
2022-09-25T14:28:25.498Z,28.10
2022-09-25T14:31:23.726Z,29.05
2022-09-25T14:34:25.867Z,29.87
2022-09-25T14:37:11.316Z,30.01
2022-09-25T14:39:46.638Z,29.78
2022-09-25T14:42:55.246Z,29.43
2022-09-25T14:45:57.839Z,29.57
2022-09-25T14:48:31.900Z,30.00
2022-09-25T14:51:06.413Z,30.48
2022-09-25T14:53:38.358Z,30.45
2022-09-25T14:56:11.988Z,28.88
2022-09-25T14:58:45.665Z,27.41
2022-09-25T15:01:24.642Z,28.01
2022-09-25T15:03:58.774Z,29.01
2022-09-25T15:06:29.359Z,29.48
2022-09-25T15:08:58.080Z,29.63
2022-09-25T15:11:29.669Z,29.01
2022-09-25T15:14:11.712Z,28.24
2022-09-25T15:16:58.186Z,27.24
2022-09-25T15:19:34.014Z,27.29
2022-09-25T15:22:02.486Z,27.51
2022-09-25T15:24:36.460Z,28.04
2022-09-25T15:27:08.963Z,27.48
2022-09-25T15:29:39.308Z,27.24
2022-09-25T15:32:07.580Z,27.95
2022-09-25T15:34:37.450Z,28.40
2022-09-25T15:37:26.293Z,28.79
2022-09-25T15:39:55.087Z,29.33
2022-09-25T15:42:23.871Z,29.81
2022-09-25T15:44:52.059Z,29.94
2022-09-25T15:47:53.576Z,29.96
2022-09-25T15:50:27.583Z,28.70
2022-09-25T15:52:59.635Z,27.24
2022-09-25T15:55:31.171Z,25.88
2022-09-25T15:58:09.136Z,24.67
2022-09-25T16:00:54.995Z,23.81
2022-09-25T16:03:56.044Z,23.00
2022-09-25T16:06:25.533Z,22.34
2022-09-25T16:09:11.282Z,21.88
2022-09-25T16:11:39.546Z,21.68
2022-09-25T16:14:29.229Z,21.84
2022-09-25T16:17:00.064Z,21.55
2022-09-25T16:19:34.998Z,21.13
2022-09-25T16:22:23.242Z,20.64
2022-09-25T16:24:55.399Z,20.23
2022-09-25T16:27:33.492Z,19.71
2022-09-25T16:30:04.601Z,19.28
2022-09-25T16:32:33.441Z,18.94
2022-09-25T16:35:03.993Z,18.64
2022-09-25T16:37:36.278Z,18.33
2022-09-25T16:40:28.859Z,18.11
2022-09-25T16:42:59.103Z,17.94
2022-09-25T16:45:33.126Z,17.82
2022-09-25T16:48:29.577Z,17.65
2022-09-25T16:51:01.194Z,17.56
2022-09-25T16:53:30.802Z,17.46
2022-09-25T16:55:59.066Z,17.37
2022-09-25T16:58:27.798Z,17.27
2022-09-25T17:00:56.677Z,17.19
2022-09-25T17:03:24.793Z,17.08
2022-09-25T17:05:53.016Z,16.98
2022-09-25T17:08:23.905Z,16.91
2022-09-25T17:10:53.872Z,16.82
2022-09-25T17:13:30.535Z,16.72
2022-09-25T17:15:58.698Z,16.62
2022-09-25T17:18:26.987Z,16.56
2022-09-25T17:20:56.780Z,16.50
2022-09-25T17:23:27.117Z,16.42
2022-09-25T17:26:01.589Z,16.37
2022-09-25T17:28:32.825Z,16.28
2022-09-25T17:31:02.468Z,16.20
2022-09-25T17:33:32.415Z,16.12
2022-09-25T17:36:04.803Z,15.99
2022-09-25T17:38:33.897Z,15.84
2022-09-25T17:41:06.271Z,15.70
2022-09-25T17:43:34.848Z,15.56
2022-09-25T17:46:03.140Z,15.43
2022-09-25T17:48:32.761Z,15.34
2022-09-25T17:51:03.819Z,15.27
2022-09-25T17:53:34.239Z,15.24
2022-09-25T17:56:06.840Z,15.20
2022-09-25T17:58:35.178Z,15.17
2022-09-25T18:01:06.516Z,15.15
2022-09-25T18:03:34.763Z,15.15
2022-09-25T18:06:02.879Z,15.13
2022-09-25T18:08:31.060Z,15.12
2022-09-25T18:10:59.762Z,15.08
2022-09-25T18:13:29.235Z,15.03
2022-09-25T18:16:00.689Z,14.92
2022-09-25T18:18:49.554Z,14.88
2022-09-25T18:21:35.895Z,14.80
2022-09-25T18:24:04.738Z,14.73
2022-09-25T18:26:32.879Z,14.65
2022-09-25T18:29:03.889Z,14.56
2022-09-25T18:31:32.266Z,14.42
2022-09-25T18:34:00.494Z,14.26
2022-09-25T18:36:28.606Z,14.09
2022-09-25T18:38:56.856Z,13.93
2022-09-25T18:41:25.132Z,13.82
2022-09-25T18:43:53.603Z,13.70
2022-09-25T18:46:23.391Z,13.59
2022-09-25T18:48:53.494Z,13.50
2022-09-25T18:51:21.584Z,13.39
2022-09-25T18:53:52.684Z,13.28
2022-09-25T18:56:21.637Z,13.19
2022-09-25T18:58:50.898Z,13.09
2022-09-25T19:01:19.391Z,12.99
2022-09-25T19:03:51.982Z,12.95
2022-09-25T19:06:21.159Z,12.87
2022-09-25T19:08:54.045Z,12.81
2022-09-25T19:11:23.834Z,12.75
2022-09-25T19:13:52.859Z,12.72
2022-09-25T19:16:22.416Z,12.67
2022-09-25T19:18:52.289Z,12.62
2022-09-25T19:21:22.539Z,12.56
2022-09-25T19:23:57.109Z,12.53
2022-09-25T19:26:26.792Z,12.51
2022-09-25T19:28:55.617Z,12.49
2022-09-25T19:31:27.195Z,12.49
2022-09-25T19:33:58.233Z,12.46
2022-09-25T19:36:31.249Z,12.43
2022-09-25T19:39:00.734Z,12.43
2022-09-25T19:41:30.886Z,12.45
2022-09-25T19:44:08.174Z,12.49
2022-09-25T19:46:41.391Z,12.52
2022-09-25T19:49:11.483Z,12.53
2022-09-25T19:51:40.228Z,12.50
2022-09-25T19:54:09.610Z,12.47
2022-09-25T19:56:40.635Z,12.46
2022-09-25T19:59:10.689Z,12.41
2022-09-25T20:01:38.973Z,12.38
2022-09-25T20:04:08.594Z,12.36
2022-09-25T20:06:39.572Z,12.32
2022-09-25T20:09:10.330Z,12.26
2022-09-25T20:11:38.639Z,12.23
2022-09-25T20:14:07.849Z,12.18
2022-09-25T20:16:37.499Z,12.13
2022-09-25T20:19:07.893Z,12.08
2022-09-25T20:21:39.225Z,12.06
2022-09-25T20:24:09.585Z,12.04
2022-09-25T20:26:38.396Z,12.01
2022-09-25T20:29:10.348Z,11.98
2022-09-25T20:31:40.522Z,11.96
2022-09-25T20:34:08.778Z,11.93
2022-09-25T20:36:38.994Z,11.91
2022-09-25T20:39:07.932Z,11.89
2022-09-25T20:41:36.759Z,11.86
2022-09-25T20:44:06.781Z,11.87
2022-09-25T20:46:35.175Z,11.88
2022-09-25T20:49:03.679Z,11.89
2022-09-25T20:51:35.116Z,11.91
2022-09-25T20:54:07.856Z,11.91
2022-09-25T20:56:38.554Z,11.92
2022-09-25T20:59:07.070Z,11.92
2022-09-25T21:01:37.989Z,11.92
2022-09-25T21:04:08.793Z,11.93
2022-09-25T21:06:39.914Z,11.92
2022-09-25T21:09:20.261Z,11.91
2022-09-25T21:11:48.837Z,11.91
2022-09-25T21:14:20.313Z,11.89
2022-09-25T21:16:49.733Z,11.87
2022-09-25T21:19:21.582Z,11.86
2022-09-25T21:21:49.921Z,11.85
2022-09-25T21:24:21.845Z,11.87
2022-09-25T21:26:50.721Z,11.87
2022-09-25T21:29:19.874Z,11.87
2022-09-25T21:31:50.321Z,11.85
2022-09-25T21:34:19.745Z,11.84
2022-09-25T21:36:48.453Z,11.84
2022-09-25T21:39:16.691Z,11.86
2022-09-25T21:41:46.419Z,11.91
2022-09-25T21:44:16.947Z,11.96
2022-09-25T21:46:45.565Z,12.02
2022-09-25T21:49:19.642Z,12.08
2022-09-25T21:51:49.748Z,12.15
2022-09-25T21:54:18.531Z,12.19
2022-09-25T21:56:48.600Z,12.24
2022-09-25T21:59:17.231Z,12.28
2022-09-25T22:01:45.547Z,12.30
2022-09-25T22:04:15.825Z,12.35
2022-09-25T22:06:47.432Z,12.37
2022-09-25T22:09:18.812Z,12.38
2022-09-25T22:11:49.181Z,12.41
2022-09-25T22:14:18.285Z,12.43
2022-09-25T22:16:49.806Z,12.45
2022-09-25T22:19:21.065Z,12.48
2022-09-25T22:21:51.827Z,12.50
2022-09-25T22:24:20.838Z,12.52
2022-09-25T22:26:52.555Z,12.55
2022-09-25T22:29:21.994Z,12.57
2022-09-25T22:31:50.493Z,12.60
2022-09-25T22:34:22.556Z,12.61
2022-09-25T22:36:56.245Z,12.65
2022-09-25T22:39:27.019Z,12.67
2022-09-25T22:41:57.578Z,12.66
2022-09-25T22:44:26.533Z,12.72
2022-09-25T22:46:54.883Z,12.73
2022-09-25T22:49:23.230Z,12.77
2022-09-25T22:51:51.343Z,12.81
2022-09-25T22:54:19.735Z,12.82
2022-09-25T22:56:47.973Z,12.84
2022-09-25T22:59:18.842Z,12.87
2022-09-25T23:01:49.614Z,12.89
2022-09-25T23:04:20.864Z,12.90
2022-09-25T23:06:50.078Z,12.93
2022-09-25T23:09:21.475Z,12.93
2022-09-25T23:11:49.997Z,12.95
2022-09-25T23:14:22.583Z,12.97
2022-09-25T23:16:54.460Z,12.98
2022-09-25T23:19:23.504Z,12.99
2022-09-25T23:21:53.976Z,13.01
2022-09-25T23:24:25.109Z,13.01
2022-09-25T23:26:54.149Z,13.02
2022-09-25T23:29:24.043Z,13.04
2022-09-25T23:31:52.896Z,13.03
2022-09-25T23:34:21.150Z,13.03
2022-09-25T23:36:49.396Z,13.04
2022-09-25T23:39:20.213Z,13.03
2022-09-25T23:41:48.926Z,13.02
2022-09-25T23:44:17.523Z,13.03
2022-09-25T23:46:47.241Z,13.04
2022-09-25T23:49:16.803Z,13.01
2022-09-25T23:51:46.218Z,13.02
2022-09-25T23:54:14.916Z,13.03
2022-09-25T23:56:43.502Z,13.03
2022-09-25T23:59:13.928Z,13.03
